createdAt,value
2023-05-06T00:00:30.919Z,67.25
2023-05-06T00:01:30.875Z,67.25
2023-05-06T00:02:30.923Z,67.25
2023-05-06T00:03:30.955Z,67.25
2023-05-06T00:04:30.848Z,67.25
2023-05-06T00:05:30.847Z,67.25
2023-05-06T00:06:30.818Z,67.25
2023-05-06T00:07:30.820Z,67.25
2023-05-06T00:08:30.793Z,67.25
2023-05-06T00:09:30.804Z,67.25
2023-05-06T00:10:30.769Z,67.25
2023-05-06T00:11:30.761Z,67.25
2023-05-06T00:12:30.731Z,67.25
2023-05-06T00:13:30.755Z,67.25
2023-05-06T00:14:30.775Z,67.25
2023-05-06T00:15:32.142Z,67.25
2023-05-06T00:16:30.736Z,67.25
2023-05-06T00:17:30.798Z,67.35
2023-05-06T00:18:30.680Z,67.35
2023-05-06T00:19:30.673Z,67.35
2023-05-06T00:20:30.692Z,67.35
2023-05-06T00:21:30.649Z,67.35
2023-05-06T00:22:30.652Z,67.35
2023-05-06T00:23:30.616Z,67.32
2023-05-06T00:24:30.608Z,67.32
2023-05-06T00:25:30.617Z,67.35
2023-05-06T00:26:30.596Z,67.32
2023-05-06T00:27:30.568Z,67.42
2023-05-06T00:28:30.554Z,67.42
2023-05-06T00:29:30.547Z,67.32
2023-05-06T00:30:30.569Z,67.32
2023-05-06T00:31:34.242Z,67.42
2023-05-06T00:32:30.532Z,67.42
2023-05-06T00:33:30.524Z,67.42
2023-05-06T00:34:30.544Z,67.42
2023-05-06T00:35:30.501Z,67.42
2023-05-06T00:36:30.479Z,67.42
2023-05-06T00:37:30.481Z,67.42
2023-05-06T00:38:30.435Z,67.42
2023-05-06T00:39:30.462Z,67.42
2023-05-06T00:40:30.441Z,67.42
2023-05-06T00:41:30.424Z,67.42
2023-05-06T00:42:30.410Z,67.42
2023-05-06T00:43:30.404Z,67.42
2023-05-06T00:44:30.395Z,67.52
2023-05-06T00:45:30.447Z,67.52
2023-05-06T00:46:30.359Z,67.52
2023-05-06T00:47:30.397Z,67.52
2023-05-06T00:48:30.337Z,67.52
2023-05-06T00:49:30.345Z,67.52
2023-05-06T00:50:30.336Z,67.52
2023-05-06T00:51:30.314Z,67.52
2023-05-06T00:52:30.287Z,67.52
2023-05-06T00:53:30.325Z,67.52
2023-05-06T00:54:30.317Z,67.52
2023-05-06T00:55:30.292Z,67.52
2023-05-06T00:56:30.289Z,67.52
2023-05-06T00:57:30.246Z,67.52
2023-05-06T00:58:30.227Z,67.52
2023-05-06T00:59:30.235Z,67.52
2023-05-06T01:00:30.218Z,67.61
2023-05-06T01:01:30.207Z,67.61
2023-05-06T01:02:43.392Z,67.61
2023-05-06T01:03:31.352Z,67.61
2023-05-06T01:04:30.233Z,67.61
2023-05-06T01:05:30.175Z,67.61
2023-05-06T01:06:30.153Z,67.61
2023-05-06T01:07:30.130Z,67.61
2023-05-06T01:08:30.137Z,67.52
2023-05-06T01:09:30.118Z,67.61
2023-05-06T01:10:30.111Z,67.61
2023-05-06T01:11:30.094Z,67.61
2023-05-06T01:12:30.085Z,67.61
2023-05-06T01:13:30.060Z,67.61
2023-05-06T01:14:30.058Z,67.61
2023-05-06T01:15:30.048Z,67.61
2023-05-06T01:16:30.070Z,67.72
2023-05-06T01:17:30.086Z,67.72
2023-05-06T01:18:30.036Z,67.72
2023-05-06T01:19:30.051Z,67.82
2023-05-06T01:20:29.987Z,67.82
2023-05-06T01:21:30.015Z,67.92
2023-05-06T01:22:29.961Z,67.92
2023-05-06T01:23:29.971Z,68.02
2023-05-06T01:24:29.938Z,68.02
2023-05-06T01:25:29.919Z,68.05
2023-05-06T01:26:29.924Z,68.12
2023-05-06T01:27:29.993Z,68.15
2023-05-06T01:28:29.903Z,68.05
2023-05-06T01:29:29.925Z,67.75
2023-05-06T01:30:29.876Z,67.75
2023-05-06T01:31:29.958Z,67.65
2023-05-06T01:32:29.915Z,67.65
2023-05-06T01:33:29.881Z,67.65
2023-05-06T01:34:29.845Z,67.75
2023-05-06T01:35:29.837Z,67.75
2023-05-06T01:36:29.809Z,67.75
2023-05-06T01:37:29.789Z,67.75
2023-05-06T01:38:29.806Z,67.75
2023-05-06T01:39:29.772Z,67.75
2023-05-06T01:40:29.755Z,67.75
2023-05-06T01:41:29.739Z,67.75
2023-05-06T01:42:29.760Z,67.75
2023-05-06T01:43:29.812Z,67.75
2023-05-06T01:44:29.737Z,67.85
2023-05-06T01:45:29.729Z,67.85
2023-05-06T01:46:30.433Z,67.85
2023-05-06T01:47:29.719Z,67.85
2023-05-06T01:48:29.676Z,67.85
2023-05-06T01:49:29.667Z,67.85
2023-05-06T01:50:29.656Z,67.85
2023-05-06T01:51:29.657Z,67.85
2023-05-06T01:52:29.629Z,67.85
2023-05-06T01:53:29.633Z,67.95
2023-05-06T01:54:29.619Z,67.85
2023-05-06T01:55:29.623Z,67.85
2023-05-06T01:56:29.678Z,67.95
2023-05-06T01:57:29.576Z,67.95
2023-05-06T01:58:29.584Z,67.95
2023-05-06T01:59:29.721Z,67.95
2023-05-06T02:00:29.552Z,68.05
2023-05-06T02:01:29.580Z,68.05
2023-05-06T02:02:29.593Z,68.05
2023-05-06T02:03:29.651Z,67.95
2023-05-06T02:04:29.513Z,67.95
2023-05-06T02:05:29.541Z,67.95
2023-05-06T02:06:29.482Z,67.95
2023-05-06T02:07:29.455Z,67.95
2023-05-06T02:08:29.473Z,67.95
2023-05-06T02:09:29.443Z,67.85
2023-05-06T02:10:29.420Z,67.95
2023-05-06T02:11:29.455Z,67.95
2023-05-06T02:12:29.417Z,67.95
2023-05-06T02:13:29.430Z,67.85
2023-05-06T02:14:29.369Z,67.95
2023-05-06T02:15:29.374Z,67.85
2023-05-06T02:16:29.421Z,67.85
2023-05-06T02:17:29.349Z,67.85
2023-05-06T02:18:29.351Z,67.95
2023-05-06T02:19:29.334Z,67.95
2023-05-06T02:20:29.341Z,67.95
2023-05-06T02:21:29.314Z,67.95
2023-05-06T02:22:29.308Z,67.95
2023-05-06T02:23:29.298Z,67.85
2023-05-06T02:24:29.286Z,67.95
2023-05-06T02:25:29.260Z,67.95
2023-05-06T02:26:29.260Z,67.95
2023-05-06T02:27:29.249Z,67.85
2023-05-06T02:28:29.285Z,67.85
2023-05-06T02:29:29.238Z,67.85
2023-05-06T02:30:29.208Z,67.85
2023-05-06T02:31:29.268Z,67.95
2023-05-06T02:32:29.224Z,67.95
2023-05-06T02:33:29.166Z,67.85
2023-05-06T02:34:29.161Z,67.85
2023-05-06T02:35:29.146Z,67.85
2023-05-06T02:36:29.157Z,67.95
2023-05-06T02:37:29.142Z,67.95
2023-05-06T02:38:29.117Z,67.95
2023-05-06T02:39:29.120Z,67.95
2023-05-06T02:40:29.115Z,67.95
2023-05-06T02:41:29.130Z,67.95
2023-05-06T02:42:29.109Z,67.95
2023-05-06T02:43:29.097Z,67.95
2023-05-06T02:44:29.061Z,67.95
2023-05-06T02:45:29.112Z,67.95
2023-05-06T02:46:29.018Z,67.95
2023-05-06T02:47:29.198Z,67.95
2023-05-06T02:48:29.030Z,67.95
2023-05-06T02:49:28.996Z,67.98
2023-05-06T02:50:28.973Z,67.98
2023-05-06T02:51:28.988Z,68.08
2023-05-06T02:52:28.966Z,67.98
2023-05-06T02:53:28.962Z,67.98
2023-05-06T02:54:28.985Z,67.98
2023-05-06T02:55:28.953Z,67.98
2023-05-06T02:56:28.954Z,67.98
2023-05-06T02:57:28.926Z,67.98
2023-05-06T02:58:28.899Z,67.98
2023-05-06T02:59:28.895Z,67.98
2023-05-06T03:00:28.867Z,67.98
2023-05-06T03:01:28.888Z,67.98
2023-05-06T03:02:28.861Z,67.98
2023-05-06T03:03:28.849Z,67.98
2023-05-06T03:04:28.957Z,67.98
2023-05-06T03:05:28.827Z,67.98
2023-05-06T03:06:28.787Z,67.98
2023-05-06T03:07:28.833Z,67.98
2023-05-06T03:08:28.789Z,67.98
2023-05-06T03:09:28.785Z,68.08
2023-05-06T03:10:28.781Z,67.98
2023-05-06T03:11:28.771Z,67.98
2023-05-06T03:12:28.730Z,67.98
2023-05-06T03:13:28.730Z,67.98
2023-05-06T03:14:28.714Z,67.98
2023-05-06T03:15:28.721Z,68.08
2023-05-06T03:16:28.759Z,67.98
2023-05-06T03:17:28.746Z,67.98
2023-05-06T03:18:28.677Z,67.98
2023-05-06T03:19:28.660Z,67.98
2023-05-06T03:20:28.692Z,67.98
2023-05-06T03:21:39.375Z,67.98
2023-05-06T03:22:28.647Z,67.98
2023-05-06T03:23:28.619Z,67.98
2023-05-06T03:24:28.616Z,67.98
2023-05-06T03:25:28.605Z,67.98
2023-05-06T03:26:28.580Z,67.98
2023-05-06T03:27:28.586Z,67.98
2023-05-06T03:28:28.550Z,67.98
2023-05-06T03:29:28.576Z,67.98
2023-05-06T03:30:28.556Z,68.08
2023-05-06T03:31:28.582Z,68.08
2023-05-06T03:32:28.576Z,68.08
2023-05-06T03:33:28.526Z,68.08
2023-05-06T03:34:28.493Z,68.08
2023-05-06T03:35:28.493Z,68.08
2023-05-06T03:36:28.521Z,68.08
2023-05-06T03:37:28.466Z,68.08
2023-05-06T03:38:28.460Z,68.08
2023-05-06T03:39:28.458Z,68.08
2023-05-06T03:40:28.460Z,68.08
2023-05-06T03:41:28.415Z,68.08
2023-05-06T03:42:28.425Z,68.08
2023-05-06T03:43:28.415Z,68.08
2023-05-06T03:44:28.385Z,68.08
2023-05-06T03:45:28.386Z,68.08
2023-05-06T03:46:30.678Z,68.08
2023-05-06T03:47:28.434Z,68.08
2023-05-06T03:48:28.334Z,68.18
2023-05-06T03:49:28.331Z,68.08
2023-05-06T03:50:28.326Z,68.08
2023-05-06T03:51:28.328Z,68.08
2023-05-06T03:52:28.298Z,68.08
2023-05-06T03:53:28.321Z,68.08
2023-05-06T03:54:28.305Z,68.08
2023-05-06T03:55:28.258Z,68.08
2023-05-06T03:56:28.264Z,68.08
2023-05-06T03:57:28.256Z,68.08
2023-05-06T03:58:28.238Z,68.08
2023-05-06T03:59:28.220Z,68.08
2023-05-06T04:00:28.216Z,68.18
2023-05-06T04:01:28.192Z,68.18
2023-05-06T04:02:28.289Z,68.18
2023-05-06T04:03:28.269Z,68.18
2023-05-06T04:04:28.174Z,68.18
2023-05-06T04:05:28.154Z,68.18
2023-05-06T04:06:28.156Z,68.18
2023-05-06T04:07:28.141Z,68.18
2023-05-06T04:08:28.128Z,68.18
2023-05-06T04:09:28.098Z,68.29
2023-05-06T04:10:28.100Z,68.29
2023-05-06T04:11:29.826Z,68.29
2023-05-06T04:12:28.086Z,68.29
2023-05-06T04:13:28.077Z,68.29
2023-05-06T04:14:28.070Z,68.38
2023-05-06T04:15:28.033Z,68.38
2023-05-06T04:16:28.128Z,68.38
2023-05-06T04:17:28.070Z,68.38
2023-05-06T04:18:28.027Z,68.38
2023-05-06T04:19:27.999Z,68.38
2023-05-06T04:20:28.002Z,68.38
2023-05-06T04:21:27.997Z,68.38
2023-05-06T04:22:27.978Z,68.38
2023-05-06T04:23:27.986Z,68.38
2023-05-06T04:24:27.950Z,68.38
2023-05-06T04:25:27.932Z,68.49
2023-05-06T04:26:27.961Z,68.49
2023-05-06T04:27:27.910Z,68.38
2023-05-06T04:28:27.949Z,68.49
2023-05-06T04:29:27.898Z,68.49
2023-05-06T04:30:27.892Z,68.49
2023-05-06T04:31:27.961Z,68.49
2023-05-06T04:32:27.926Z,68.49
2023-05-06T04:33:27.849Z,68.49
2023-05-06T04:34:27.949Z,68.49
2023-05-06T04:35:27.823Z,68.49
2023-05-06T04:36:27.836Z,68.49
2023-05-06T04:37:27.829Z,68.49
2023-05-06T04:38:27.807Z,68.49
2023-05-06T04:39:27.805Z,68.49
2023-05-06T04:40:27.780Z,68.49
2023-05-06T04:41:27.778Z,68.49
2023-05-06T04:42:27.786Z,68.49
2023-05-06T04:43:27.781Z,68.59
2023-05-06T04:44:27.918Z,68.59
2023-05-06T04:45:27.783Z,68.59
2023-05-06T04:46:27.733Z,68.59
2023-05-06T04:47:27.726Z,68.59
2023-05-06T04:48:27.711Z,68.59
2023-05-06T04:49:27.707Z,68.59
2023-05-06T04:50:27.661Z,68.59
2023-05-06T04:51:27.669Z,68.59
2023-05-06T04:52:27.687Z,68.59
2023-05-06T04:53:27.642Z,68.59
2023-05-06T04:54:27.642Z,68.59
2023-05-06T04:55:27.660Z,68.59
2023-05-06T04:56:27.600Z,68.59
2023-05-06T04:57:27.602Z,68.59
2023-05-06T04:58:27.584Z,68.59
2023-05-06T04:59:27.586Z,68.59
2023-05-06T05:00:27.581Z,68.68
2023-05-06T05:01:27.602Z,68.68
2023-05-06T05:02:27.733Z,68.68
2023-05-06T05:03:27.710Z,68.68
2023-05-06T05:04:27.527Z,68.68
2023-05-06T05:05:27.525Z,68.59
2023-05-06T05:06:27.480Z,68.68
2023-05-06T05:07:27.481Z,68.68
2023-05-06T05:08:27.463Z,68.68
2023-05-06T05:09:27.487Z,68.68
2023-05-06T05:10:27.500Z,68.68
2023-05-06T05:11:27.428Z,68.68
2023-05-06T05:12:27.409Z,68.79
2023-05-06T05:13:27.422Z,68.68
2023-05-06T05:14:27.405Z,68.68
2023-05-06T05:15:27.390Z,68.68
2023-05-06T05:16:27.427Z,68.79
2023-05-06T05:17:27.425Z,68.79
2023-05-06T05:18:27.382Z,68.79
2023-05-06T05:19:27.358Z,68.79
2023-05-06T05:20:27.361Z,68.79
2023-05-06T05:21:27.346Z,68.79
2023-05-06T05:22:27.311Z,68.79
2023-05-06T05:23:27.325Z,68.68
2023-05-06T05:24:27.282Z,68.79
2023-05-06T05:25:27.290Z,68.79
2023-05-06T05:26:27.267Z,68.68
2023-05-06T05:27:27.266Z,68.79
2023-05-06T05:28:27.282Z,68.79
2023-05-06T05:29:27.293Z,68.79
2023-05-06T05:30:27.235Z,68.68
2023-05-06T05:31:27.250Z,68.82
2023-05-06T05:32:27.243Z,68.79
2023-05-06T05:33:27.283Z,68.79
2023-05-06T05:34:27.194Z,68.79
2023-05-06T05:35:27.182Z,68.82
2023-05-06T05:36:27.174Z,68.79
2023-05-06T05:37:27.153Z,68.79
2023-05-06T05:38:27.162Z,68.82
2023-05-06T05:39:27.148Z,68.72
2023-05-06T05:40:27.128Z,68.72
2023-05-06T05:41:27.102Z,68.72
2023-05-06T05:42:27.110Z,68.72
2023-05-06T05:43:27.135Z,68.68
2023-05-06T05:44:27.075Z,68.72
2023-05-06T05:45:27.079Z,68.72
2023-05-06T05:46:27.092Z,68.72
2023-05-06T05:47:27.114Z,68.72
2023-05-06T05:48:27.032Z,68.72
2023-05-06T05:49:27.045Z,68.72
2023-05-06T05:50:27.001Z,68.72
2023-05-06T05:51:27.038Z,68.72
2023-05-06T05:52:26.976Z,68.72
2023-05-06T05:53:26.993Z,68.72
2023-05-06T05:54:26.978Z,68.72
2023-05-06T05:55:26.950Z,68.72
2023-05-06T05:56:26.953Z,68.72
2023-05-06T05:57:26.957Z,68.72
2023-05-06T05:58:26.912Z,68.72
2023-05-06T05:59:26.922Z,68.72
2023-05-06T06:00:26.911Z,68.72
2023-05-06T06:01:26.895Z,68.82
2023-05-06T06:02:26.939Z,68.82
2023-05-06T06:03:27.002Z,68.82
2023-05-06T06:04:26.873Z,68.82
2023-05-06T06:05:26.854Z,68.82
2023-05-06T06:06:26.844Z,68.92
2023-05-06T06:07:26.827Z,68.92
2023-05-06T06:08:26.823Z,68.82
2023-05-06T06:09:26.795Z,68.92
2023-05-06T06:10:26.785Z,68.92
2023-05-06T06:11:26.792Z,68.92
2023-05-06T06:12:26.784Z,68.92
2023-05-06T06:13:28.605Z,68.82
2023-05-06T06:14:26.737Z,68.92
2023-05-06T06:15:26.749Z,68.92
2023-05-06T06:16:26.769Z,68.92
2023-05-06T06:17:26.730Z,68.92
2023-05-06T06:18:26.732Z,68.92
2023-05-06T06:19:26.682Z,68.82
2023-05-06T06:20:26.688Z,68.92
2023-05-06T06:21:26.674Z,68.92
2023-05-06T06:22:26.651Z,69.02
2023-05-06T06:23:26.669Z,69.02
2023-05-06T06:24:26.642Z,69.12
2023-05-06T06:25:26.624Z,69.12
2023-05-06T06:26:26.636Z,69.12
2023-05-06T06:27:26.628Z,69.12
2023-05-06T06:28:26.626Z,69.12
2023-05-06T06:29:26.611Z,69.12
2023-05-06T06:30:26.577Z,69.12
2023-05-06T06:31:26.596Z,69.12
2023-05-06T06:32:26.583Z,69.12
2023-05-06T06:33:26.590Z,69.22
2023-05-06T06:34:26.554Z,69.12
2023-05-06T06:35:26.522Z,69.22
2023-05-06T06:36:26.523Z,69.22
2023-05-06T06:37:26.502Z,69.22
2023-05-06T06:38:26.637Z,69.22
2023-05-06T06:39:26.478Z,69.32
2023-05-06T06:40:26.488Z,69.32
2023-05-06T06:41:26.481Z,69.32
2023-05-06T06:42:27.325Z,69.32
2023-05-06T06:43:26.431Z,69.32
2023-05-06T06:44:26.407Z,69.22
2023-05-06T06:45:26.398Z,69.22
2023-05-06T06:46:26.389Z,69.22
2023-05-06T06:47:26.482Z,69.22
2023-05-06T06:48:26.378Z,69.22
2023-05-06T06:49:26.365Z,69.32
2023-05-06T06:50:26.408Z,69.32
2023-05-06T06:51:26.334Z,69.22
2023-05-06T06:52:26.324Z,69.22
2023-05-06T06:53:26.338Z,69.22
2023-05-06T06:54:26.298Z,69.32
2023-05-06T06:55:26.304Z,69.32
2023-05-06T06:56:26.270Z,69.32
2023-05-06T06:57:26.283Z,69.32
2023-05-06T06:58:26.275Z,69.32
2023-05-06T06:59:26.252Z,69.32
2023-05-06T07:00:26.324Z,69.32
2023-05-06T07:01:26.364Z,69.32
2023-05-06T07:02:26.278Z,69.42
2023-05-06T07:03:26.228Z,69.32
2023-05-06T07:04:26.203Z,69.42
2023-05-06T07:05:26.201Z,69.42
2023-05-06T07:06:26.172Z,69.42
2023-05-06T07:07:26.156Z,69.52
2023-05-06T07:08:26.152Z,69.42
2023-05-06T07:09:26.157Z,69.42
2023-05-06T07:10:26.145Z,69.32
2023-05-06T07:11:26.133Z,69.42
2023-05-06T07:12:26.088Z,69.42
2023-05-06T07:13:26.117Z,69.42
2023-05-06T07:14:26.088Z,69.42
2023-05-06T07:15:26.095Z,69.42
2023-05-06T07:16:26.111Z,69.42
2023-05-06T07:17:26.144Z,69.32
2023-05-06T07:18:26.046Z,69.32
2023-05-06T07:19:26.042Z,69.32
2023-05-06T07:20:26.024Z,69.32
2023-05-06T07:21:26.014Z,69.32
2023-05-06T07:22:26.003Z,69.42
2023-05-06T07:23:25.976Z,69.42
2023-05-06T07:24:26.013Z,69.42
2023-05-06T07:25:25.993Z,69.42
2023-05-06T07:26:25.951Z,69.32
2023-05-06T07:27:25.944Z,69.32
2023-05-06T07:28:25.924Z,69.42
2023-05-06T07:29:25.944Z,69.32
2023-05-06T07:30:25.930Z,69.42
2023-05-06T07:31:25.950Z,69.52
2023-05-06T07:32:25.908Z,69.42
2023-05-06T07:33:25.885Z,69.42
2023-05-06T07:34:25.875Z,69.52
2023-05-06T07:35:25.861Z,69.52
2023-05-06T07:36:25.825Z,69.52
2023-05-06T07:37:25.870Z,69.52
2023-05-06T07:38:25.818Z,69.52
2023-05-06T07:39:25.795Z,69.52
2023-05-06T07:40:25.780Z,69.52
2023-05-06T07:41:25.794Z,69.52
2023-05-06T07:42:25.785Z,69.42
2023-05-06T07:43:25.784Z,69.42
2023-05-06T07:44:25.752Z,69.42
2023-05-06T07:45:25.745Z,69.42
2023-05-06T07:46:25.820Z,69.42
2023-05-06T07:47:25.897Z,69.52
2023-05-06T07:48:25.756Z,69.42
2023-05-06T07:49:25.687Z,69.52
2023-05-06T07:50:25.677Z,69.52
2023-05-06T07:51:25.684Z,69.52
2023-05-06T07:52:25.718Z,69.52
2023-05-06T07:53:25.667Z,69.52
2023-05-06T07:54:25.639Z,69.52
2023-05-06T07:55:25.633Z,69.52
2023-05-06T07:56:25.615Z,69.42
2023-05-06T07:57:25.597Z,69.52
2023-05-06T07:58:25.584Z,69.42
2023-05-06T07:59:25.613Z,69.52
2023-05-06T08:00:25.572Z,69.52
2023-05-06T08:01:25.591Z,69.42
2023-05-06T08:02:25.817Z,69.52
2023-05-06T08:03:25.827Z,69.42
2023-05-06T08:04:25.611Z,69.42
2023-05-06T08:05:25.525Z,69.42
2023-05-06T08:06:25.506Z,69.42
2023-05-06T08:07:25.493Z,69.42
2023-05-06T08:08:25.503Z,69.42
2023-05-06T08:09:25.464Z,69.42
2023-05-06T08:10:25.525Z,69.42
2023-05-06T08:11:25.460Z,69.42
2023-05-06T08:12:25.450Z,69.42
2023-05-06T08:13:25.431Z,69.42
2023-05-06T08:14:25.410Z,69.32
2023-05-06T08:15:25.419Z,69.42
2023-05-06T08:16:25.762Z,69.42
2023-05-06T08:17:25.431Z,69.42
2023-05-06T08:18:25.446Z,69.42
2023-05-06T08:19:25.373Z,69.42
2023-05-06T08:20:25.352Z,69.42
2023-05-06T08:21:25.388Z,69.42
2023-05-06T08:22:25.371Z,69.42
2023-05-06T08:23:25.349Z,69.42
2023-05-06T08:24:25.296Z,69.42
2023-05-06T08:25:25.326Z,69.42
2023-05-06T08:26:25.280Z,69.42
2023-05-06T08:27:25.273Z,69.42
2023-05-06T08:28:25.430Z,69.42
2023-05-06T08:29:25.251Z,69.42
2023-05-06T08:30:25.245Z,69.32
2023-05-06T08:31:25.280Z,69.42
2023-05-06T08:32:25.390Z,69.42
2023-05-06T08:33:25.206Z,69.42
2023-05-06T08:34:25.190Z,69.42
2023-05-06T08:35:25.199Z,69.42
2023-05-06T08:36:25.171Z,69.42
2023-05-06T08:37:25.195Z,69.42
2023-05-06T08:38:25.163Z,69.42
2023-05-06T08:39:25.148Z,69.45
2023-05-06T08:40:25.120Z,69.42
2023-05-06T08:41:25.115Z,69.42
2023-05-06T08:42:25.110Z,69.45
2023-05-06T08:43:25.085Z,69.45
2023-05-06T08:44:25.079Z,69.56
2023-05-06T08:45:26.804Z,69.45
2023-05-06T08:46:25.206Z,69.42
2023-05-06T08:47:25.065Z,69.45
2023-05-06T08:48:25.024Z,69.45
2023-05-06T08:49:25.032Z,69.65
2023-05-06T08:50:25.003Z,69.52
2023-05-06T08:51:26.098Z,69.65
2023-05-06T08:52:24.986Z,69.65
2023-05-06T08:53:24.993Z,69.56
2023-05-06T08:54:25.015Z,69.56
2023-05-06T08:55:24.971Z,69.65
2023-05-06T08:56:24.934Z,69.65
2023-05-06T08:57:24.939Z,69.65
2023-05-06T08:58:24.954Z,69.65
2023-05-06T08:59:24.943Z,69.65
2023-05-06T09:00:24.924Z,69.76
2023-05-06T09:01:24.927Z,69.65
2023-05-06T09:02:24.920Z,69.76
2023-05-06T09:03:24.995Z,69.76
2023-05-06T09:04:24.863Z,69.65
2023-05-06T09:05:24.842Z,69.65
2023-05-06T09:06:24.841Z,69.65
2023-05-06T09:07:24.835Z,69.65
2023-05-06T09:08:24.820Z,69.65
2023-05-06T09:09:24.816Z,69.65
2023-05-06T09:10:24.807Z,69.65
2023-05-06T09:11:24.805Z,69.65
2023-05-06T09:12:24.785Z,69.65
2023-05-06T09:13:24.772Z,69.65
2023-05-06T09:14:24.760Z,69.65
2023-05-06T09:15:24.760Z,69.65
2023-05-06T09:16:24.743Z,69.65
2023-05-06T09:17:24.714Z,69.65
2023-05-06T09:18:24.709Z,69.65
2023-05-06T09:19:24.698Z,69.65
2023-05-06T09:20:24.685Z,69.65
2023-05-06T09:21:24.683Z,69.65
2023-05-06T09:22:24.664Z,69.76
2023-05-06T09:23:24.654Z,69.76
2023-05-06T09:24:24.646Z,69.65
2023-05-06T09:25:24.630Z,69.65
2023-05-06T09:26:24.615Z,69.76
2023-05-06T09:27:24.608Z,69.76
2023-05-06T09:28:24.599Z,69.76
2023-05-06T09:29:24.570Z,69.76
2023-05-06T09:30:24.590Z,69.76
2023-05-06T09:31:24.621Z,69.65
2023-05-06T09:32:24.598Z,69.65
2023-05-06T09:33:24.551Z,69.65
2023-05-06T09:34:24.520Z,69.65
2023-05-06T09:35:24.517Z,69.65
2023-05-06T09:36:24.515Z,69.65
2023-05-06T09:37:24.509Z,69.65
2023-05-06T09:38:24.499Z,69.76
2023-05-06T09:39:24.469Z,69.76
2023-05-06T09:40:24.471Z,69.76
2023-05-06T09:41:24.458Z,69.85
2023-05-06T09:42:24.433Z,69.76
2023-05-06T09:43:24.431Z,69.76
2023-05-06T09:44:24.415Z,69.76
2023-05-06T09:45:24.452Z,69.85
2023-05-06T09:46:24.486Z,69.85
2023-05-06T09:47:24.427Z,69.85
2023-05-06T09:48:24.381Z,69.85
2023-05-06T09:49:24.347Z,69.85
2023-05-06T09:50:24.336Z,69.96
2023-05-06T09:51:24.320Z,69.96
2023-05-06T09:52:24.334Z,69.96
2023-05-06T09:53:24.303Z,69.96
2023-05-06T09:54:24.328Z,69.96
2023-05-06T09:55:24.307Z,69.96
2023-05-06T09:56:24.288Z,69.96
2023-05-06T09:57:24.290Z,69.96
2023-05-06T09:58:24.279Z,69.96
2023-05-06T09:59:24.253Z,69.96
2023-05-06T10:00:24.235Z,69.96
2023-05-06T10:01:35.197Z,69.96
2023-05-06T10:02:25.363Z,69.96
2023-05-06T10:03:24.318Z,70.06
2023-05-06T10:04:26.270Z,70.06
2023-05-06T10:05:24.223Z,70.16
2023-05-06T10:06:24.173Z,70.16
2023-05-06T10:07:24.157Z,70.16
2023-05-06T10:08:24.138Z,70.16
2023-05-06T10:09:24.164Z,70.16
2023-05-06T10:10:25.494Z,70.16
2023-05-06T10:11:24.106Z,70.16
2023-05-06T10:12:24.092Z,70.06
2023-05-06T10:13:24.147Z,70.16
2023-05-06T10:14:24.083Z,70.16
2023-05-06T10:15:24.081Z,70.16
2023-05-06T10:16:24.117Z,70.26
2023-05-06T10:17:24.099Z,70.36
2023-05-06T10:18:24.038Z,70.36
2023-05-06T10:19:24.006Z,70.36
2023-05-06T10:20:24.021Z,70.36
2023-05-06T10:21:24.007Z,70.36
2023-05-06T10:22:24.000Z,70.36
2023-05-06T10:23:23.991Z,69.96
2023-05-06T10:24:23.985Z,69.65
2023-05-06T10:25:23.961Z,69.65
2023-05-06T10:26:23.964Z,69.65
2023-05-06T10:27:23.937Z,69.65
2023-05-06T10:28:31.177Z,69.56
2023-05-06T10:29:24.896Z,69.45
2023-05-06T10:30:23.908Z,69.35
2023-05-06T10:31:23.896Z,69.35
2023-05-06T10:32:23.927Z,69.25
2023-05-06T10:33:23.854Z,69.15
2023-05-06T10:34:23.858Z,69.15
2023-05-06T10:35:23.861Z,69.15
2023-05-06T10:36:23.821Z,69.06
2023-05-06T10:37:23.823Z,68.95
2023-05-06T10:38:23.805Z,68.75
2023-05-06T10:39:23.790Z,68.75
2023-05-06T10:40:23.778Z,68.75
2023-05-06T10:41:23.771Z,68.85
2023-05-06T10:42:23.779Z,68.75
2023-05-06T10:43:23.749Z,68.85
2023-05-06T10:44:23.748Z,68.95
2023-05-06T10:45:23.863Z,69.15
2023-05-06T10:46:23.735Z,69.56
2023-05-06T10:47:23.730Z,69.76
2023-05-06T10:48:23.684Z,69.85
2023-05-06T10:49:23.695Z,69.85
2023-05-06T10:50:23.672Z,69.85
2023-05-06T10:51:23.664Z,69.96
2023-05-06T10:52:23.671Z,69.96
2023-05-06T10:53:23.693Z,69.76
2023-05-06T10:54:23.624Z,69.56
2023-05-06T10:55:23.599Z,69.35
2023-05-06T10:56:23.602Z,69.06
2023-05-06T10:57:23.583Z,68.95
2023-05-06T10:58:23.607Z,68.55
2023-05-06T10:59:23.568Z,68.55
2023-05-06T11:00:23.562Z,68.55
2023-05-06T11:01:23.567Z,68.45
2023-05-06T11:02:23.604Z,68.35
2023-05-06T11:03:23.762Z,68.25
2023-05-06T11:04:23.529Z,68.15
2023-05-06T11:05:23.496Z,68.05
2023-05-06T11:06:23.530Z,67.85
2023-05-06T11:07:23.505Z,67.65
2023-05-06T11:08:23.470Z,67.44
2023-05-06T11:09:23.496Z,67.44
2023-05-06T11:10:23.450Z,67.35
2023-05-06T11:11:23.438Z,67.24
2023-05-06T11:12:23.412Z,67.24
2023-05-06T11:13:23.532Z,66.94
2023-05-06T11:14:23.421Z,67.04
2023-05-06T11:15:23.406Z,67.14
2023-05-06T11:16:23.402Z,67.24
2023-05-06T11:17:23.401Z,67.24
2023-05-06T11:18:23.349Z,67.24
2023-05-06T11:19:23.349Z,67.24
2023-05-06T11:20:23.348Z,67.24
2023-05-06T11:21:23.401Z,67.35
2023-05-06T11:22:23.317Z,67.35
2023-05-06T11:23:23.304Z,67.35
2023-05-06T11:24:23.293Z,67.24
2023-05-06T11:25:23.275Z,67.14
2023-05-06T11:26:23.297Z,67.18
2023-05-06T11:27:23.263Z,67.18
2023-05-06T11:28:23.268Z,67.18
2023-05-06T11:29:23.250Z,67.07
2023-05-06T11:30:23.240Z,67.18
2023-05-06T11:31:23.259Z,67.18
2023-05-06T11:32:23.287Z,67.27
2023-05-06T11:33:23.201Z,67.47
2023-05-06T11:34:23.223Z,67.38
2023-05-06T11:35:23.163Z,67.38
2023-05-06T11:36:23.155Z,67.47
2023-05-06T11:37:23.208Z,67.38
2023-05-06T11:38:23.139Z,67.38
2023-05-06T11:39:23.129Z,67.38
2023-05-06T11:40:23.104Z,67.47
2023-05-06T11:41:23.158Z,67.47
2023-05-06T11:42:23.114Z,67.47
2023-05-06T11:43:23.069Z,67.55
2023-05-06T11:44:23.075Z,67.58
2023-05-06T11:45:23.065Z,67.65
2023-05-06T11:46:23.152Z,67.68
2023-05-06T11:47:23.075Z,67.65
2023-05-06T11:48:23.057Z,67.55
2023-05-06T11:49:23.040Z,67.55
2023-05-06T11:50:23.017Z,67.65
2023-05-06T11:51:23.038Z,67.65
2023-05-06T11:52:23.017Z,67.65
2023-05-06T11:53:23.009Z,67.65
2023-05-06T11:54:23.029Z,67.65
2023-05-06T11:55:22.969Z,67.65
2023-05-06T11:56:22.932Z,67.74
2023-05-06T11:57:22.935Z,67.74
2023-05-06T11:58:22.921Z,67.74
2023-05-06T11:59:22.935Z,67.74
2023-05-06T12:00:22.907Z,67.74
2023-05-06T12:01:22.903Z,67.85
2023-05-06T12:02:22.952Z,67.85
2023-05-06T12:03:23.013Z,67.85
2023-05-06T12:04:22.887Z,67.85
2023-05-06T12:05:22.840Z,67.94
2023-05-06T12:06:24.547Z,67.94
2023-05-06T12:07:22.800Z,67.94
2023-05-06T12:08:27.516Z,67.94
2023-05-06T12:09:23.797Z,68.05
2023-05-06T12:10:22.799Z,68.05
2023-05-06T12:11:22.794Z,68.05
2023-05-06T12:12:22.847Z,68.05
2023-05-06T12:13:22.770Z,68.05
2023-05-06T12:14:22.738Z,68.05
2023-05-06T12:15:22.731Z,68.05
2023-05-06T12:16:22.770Z,68.05
2023-05-06T12:17:22.729Z,68.15
2023-05-06T12:18:22.680Z,68.15
2023-05-06T12:19:22.676Z,68.15
2023-05-06T12:20:22.668Z,68.15
2023-05-06T12:21:22.668Z,68.15
2023-05-06T12:22:22.698Z,68.25
2023-05-06T12:23:22.655Z,68.15
2023-05-06T12:24:22.630Z,68.25
2023-05-06T12:25:22.652Z,68.25
2023-05-06T12:26:22.631Z,68.25
2023-05-06T12:27:22.587Z,68.25
2023-05-06T12:28:22.601Z,68.25
2023-05-06T12:29:22.569Z,68.35
2023-05-06T12:30:22.548Z,68.25
2023-05-06T12:31:22.713Z,68.25
2023-05-06T12:32:22.544Z,68.25
2023-05-06T12:33:22.530Z,68.35
2023-05-06T12:34:22.516Z,68.35
2023-05-06T12:35:22.488Z,68.35
2023-05-06T12:36:22.481Z,68.35
2023-05-06T12:37:22.484Z,68.35
2023-05-06T12:38:22.487Z,68.35
2023-05-06T12:39:22.490Z,68.45
2023-05-06T12:40:22.447Z,68.45
2023-05-06T12:41:22.440Z,68.45
2023-05-06T12:42:22.458Z,68.45
2023-05-06T12:43:22.417Z,68.45
2023-05-06T12:44:22.410Z,68.55
2023-05-06T12:45:22.395Z,68.55
2023-05-06T12:46:22.447Z,68.55
2023-05-06T12:47:22.373Z,68.55
2023-05-06T12:48:22.383Z,68.55
2023-05-06T12:49:22.391Z,68.55
2023-05-06T12:50:22.343Z,68.55
2023-05-06T12:51:22.386Z,68.65
2023-05-06T12:52:22.327Z,68.55